createdAt,value
2023-08-01T00:00:09.828Z,99161.69
2023-08-01T00:01:06.876Z,99159.88
2023-08-01T00:02:04.150Z,99162.66
2023-08-01T00:03:01.207Z,99160.59
2023-08-01T00:03:58.350Z,99151.97
2023-08-01T00:04:55.367Z,99155.53
2023-08-01T00:05:52.400Z,99156.41
2023-08-01T00:06:49.356Z,99154.34
2023-08-01T00:07:46.330Z,99158.25
2023-08-01T00:08:43.297Z,99158.28
2023-08-01T00:09:40.223Z,99151.72
2023-08-01T00:10:37.178Z,99151.38
2023-08-01T00:11:34.075Z,99155.56
2023-08-01T00:12:31.040Z,99154.87
2023-08-01T00:13:28.102Z,99151.62
2023-08-01T00:14:27.874Z,99155.22
2023-08-01T00:15:24.832Z,99158.56
2023-08-01T00:16:21.788Z,99155.06
2023-08-01T00:17:19.023Z,99154.87
2023-08-01T00:18:16.036Z,99157.94
2023-08-01T00:19:13.886Z,99145.66
2023-08-01T00:20:11.311Z,99158.88
2023-08-01T00:21:11.378Z,99151.25
2023-08-01T00:22:08.401Z,99151.81
2023-08-01T00:23:05.306Z,99157.31
2023-08-01T00:24:02.304Z,99147.78
2023-08-01T00:24:59.881Z,99147.78
2023-08-01T00:25:56.914Z,99146.47
2023-08-01T00:26:56.417Z,99149.22
2023-08-01T00:27:53.375Z,99149.22
2023-08-01T00:28:50.686Z,99149.53
2023-08-01T00:29:47.899Z,99147.41
2023-08-01T00:30:44.883Z,99157.34
2023-08-01T00:31:41.813Z,99145.03
2023-08-01T00:32:39.248Z,99138.72
2023-08-01T00:33:36.608Z,99143.69
2023-08-01T00:34:33.543Z,99149.72
2023-08-01T00:35:30.505Z,99144.25
2023-08-01T00:36:27.477Z,99137.69
2023-08-01T00:37:24.395Z,99138.47
2023-08-01T00:38:21.323Z,99142.28
2023-08-01T00:39:18.457Z,99133.50
2023-08-01T00:40:15.358Z,99133.25
2023-08-01T00:41:12.349Z,99128.88
2023-08-01T00:42:09.438Z,99131.66
2023-08-01T00:43:07.077Z,99133.09
2023-08-01T00:44:04.284Z,99128.47
2023-08-01T00:45:01.969Z,99126.84
2023-08-01T00:46:02.508Z,99125.47
2023-08-01T00:46:59.318Z,99123.25
2023-08-01T00:47:56.755Z,99123.00
2023-08-01T00:48:54.687Z,99121.38
2023-08-01T00:49:51.867Z,99125.25
2023-08-01T00:50:48.832Z,99123.09
2023-08-01T00:51:46.183Z,99125.00
2023-08-01T00:52:43.162Z,99115.91
2023-08-01T00:53:40.990Z,99123.09
2023-08-01T00:54:38.216Z,99119.78
2023-08-01T00:55:35.689Z,99108.56
2023-08-01T00:56:32.903Z,99106.97
2023-08-01T00:57:29.994Z,99110.19
2023-08-01T00:58:27.097Z,99113.56
2023-08-01T00:59:24.135Z,99105.34
2023-08-01T01:00:21.106Z,99102.31
2023-08-01T01:01:18.693Z,99092.22
2023-08-01T01:02:15.713Z,99101.19
2023-08-01T01:03:12.940Z,99096.28
2023-08-01T01:04:10.326Z,99101.75
2023-08-01T01:05:07.655Z,99104.25
2023-08-01T01:06:26.526Z,99106.97
2023-08-01T01:07:25.217Z,99107.31
2023-08-01T01:08:22.369Z,99101.31
2023-08-01T01:09:20.091Z,99098.31
2023-08-01T01:10:17.096Z,99095.22
2023-08-01T01:11:14.127Z,99094.09
2023-08-01T01:12:11.096Z,99090.53
2023-08-01T01:13:08.125Z,99093.28
2023-08-01T01:14:05.124Z,99094.37
2023-08-01T01:15:02.047Z,99093.03
2023-08-01T01:15:59.000Z,99084.75
2023-08-01T01:16:56.625Z,99087.00
2023-08-01T01:17:53.658Z,99085.06
2023-08-01T01:18:50.747Z,99080.69
2023-08-01T01:19:47.729Z,99080.94
2023-08-01T01:20:44.693Z,99079.56
2023-08-01T01:21:42.904Z,99075.72
2023-08-01T01:22:40.686Z,99078.69
2023-08-01T01:23:39.615Z,99075.94
2023-08-01T01:24:36.920Z,99071.00
2023-08-01T01:25:34.212Z,99075.16
2023-08-01T01:26:31.822Z,99075.41
2023-08-01T01:27:29.613Z,99068.28
2023-08-01T01:28:27.456Z,99074.84
2023-08-01T01:29:25.171Z,99065.53
2023-08-01T01:30:22.219Z,99070.72
2023-08-01T01:31:19.287Z,99070.72
2023-08-01T01:32:16.567Z,99067.72
2023-08-01T01:33:13.864Z,99069.09
2023-08-01T01:34:11.403Z,99066.62
2023-08-01T01:35:08.624Z,99068.56
2023-08-01T01:36:05.951Z,99068.31
2023-08-01T01:37:04.715Z,99067.47
2023-08-01T01:38:05.060Z,99061.16
2023-08-01T01:39:02.009Z,99062.25
2023-08-01T01:39:59.015Z,99064.97
2023-08-01T01:40:55.988Z,99060.62
2023-08-01T01:41:52.904Z,99061.47
2023-08-01T01:42:50.747Z,99063.13
2023-08-01T01:43:47.849Z,99056.59
2023-08-01T01:44:44.819Z,99054.94
2023-08-01T01:45:42.008Z,99049.78
2023-08-01T01:46:39.529Z,99061.78
2023-08-01T01:47:36.997Z,99055.75
2023-08-01T01:48:34.157Z,99046.41
2023-08-01T01:49:31.181Z,99036.81
2023-08-01T01:50:28.282Z,99043.09
2023-08-01T01:51:27.337Z,99046.66
2023-08-01T01:52:24.343Z,99040.66
2023-08-01T01:53:21.289Z,99048.06
2023-08-01T01:54:18.200Z,99048.34
2023-08-01T01:55:15.605Z,99046.16
2023-08-01T01:56:12.591Z,99043.44
2023-08-01T01:57:10.066Z,99046.75
2023-08-01T01:58:07.586Z,99043.22
2023-08-01T01:59:04.636Z,99044.53
2023-08-01T02:00:01.566Z,99039.31
2023-08-01T02:00:58.539Z,99040.41
2023-08-01T02:01:55.544Z,99042.63
2023-08-01T02:02:52.588Z,99038.50
2023-08-01T02:03:49.533Z,99044.53
2023-08-01T02:04:48.113Z,99034.38
2023-08-01T02:05:46.138Z,99034.72
2023-08-01T02:06:43.337Z,99039.94
2023-08-01T02:07:40.357Z,99040.78
2023-08-01T02:08:37.297Z,99033.63
2023-08-01T02:09:34.259Z,99034.41
2023-08-01T02:10:34.057Z,99037.69
2023-08-01T02:11:31.003Z,99027.59
2023-08-01T02:12:28.877Z,99035.50
2023-08-01T02:13:30.498Z,99032.44
2023-08-01T02:14:27.979Z,99029.97
2023-08-01T02:15:25.007Z,99019.31
2023-08-01T02:16:22.033Z,99023.13
2023-08-01T02:17:19.236Z,99022.88
2023-08-01T02:18:16.204Z,99017.94
2023-08-01T02:19:13.127Z,99022.31
2023-08-01T02:20:10.331Z,99019.88
2023-08-01T02:21:07.288Z,99015.47
2023-08-01T02:22:04.415Z,99011.91
2023-08-01T02:23:01.286Z,99016.00
2023-08-01T02:23:58.296Z,99025.03
2023-08-01T02:24:55.269Z,99013.75
2023-08-01T02:25:52.992Z,99016.72
2023-08-01T02:26:51.536Z,99019.97
2023-08-01T02:27:48.547Z,99024.63
2023-08-01T02:28:45.546Z,99026.25
2023-08-01T02:29:42.616Z,99018.84
2023-08-01T02:30:39.945Z,99020.22
2023-08-01T02:31:36.936Z,99014.50
2023-08-01T02:32:34.077Z,99024.38
2023-08-01T02:33:31.237Z,99010.94
2023-08-01T02:34:28.278Z,99017.56
2023-08-01T02:35:25.319Z,99015.63
2023-08-01T02:36:22.333Z,99018.03
2023-08-01T02:37:19.377Z,99026.56
2023-08-01T02:38:16.392Z,99021.09
2023-08-01T02:39:13.348Z,99022.22
2023-08-01T02:40:11.001Z,99009.03
2023-08-01T02:41:08.041Z,99019.41
2023-08-01T02:42:05.057Z,99018.13
2023-08-01T02:43:02.041Z,99009.09
2023-08-01T02:43:58.919Z,99008.69
2023-08-01T02:44:55.948Z,99015.28
2023-08-01T02:45:52.975Z,99005.72
2023-08-01T02:46:49.892Z,99007.06
2023-08-01T02:47:46.854Z,99007.56
2023-08-01T02:48:44.012Z,98998.00
2023-08-01T02:49:40.956Z,99006.75
2023-08-01T02:50:37.820Z,99014.16
2023-08-01T02:51:34.734Z,99007.00
2023-08-01T02:52:31.634Z,98998.25
2023-08-01T02:53:28.567Z,99000.22
2023-08-01T02:54:25.925Z,98998.25
2023-08-01T02:55:22.931Z,98999.28
2023-08-01T02:56:19.774Z,99007.22
2023-08-01T02:57:17.072Z,99000.13
2023-08-01T02:58:13.991Z,98998.78
2023-08-01T02:59:11.302Z,99002.91
2023-08-01T03:00:13.059Z,98995.81
2023-08-01T03:01:14.662Z,98993.06
2023-08-01T03:02:11.753Z,98991.62
2023-08-01T03:03:08.724Z,98994.91
2023-08-01T03:04:07.603Z,98993.31
2023-08-01T03:05:06.281Z,98998.53
2023-08-01T03:06:03.755Z,98990.00
2023-08-01T03:07:00.759Z,98989.22
2023-08-01T03:07:58.088Z,98995.97
2023-08-01T03:08:54.994Z,98996.84
2023-08-01T03:09:51.895Z,98993.59
2023-08-01T03:10:48.950Z,98990.31
2023-08-01T03:11:45.944Z,98985.03
2023-08-01T03:12:42.957Z,98982.84
2023-08-01T03:13:39.864Z,98987.78
2023-08-01T03:14:36.958Z,98987.75
2023-08-01T03:15:34.063Z,98986.38
2023-08-01T03:16:31.474Z,98989.91
2023-08-01T03:17:28.445Z,98987.53
2023-08-01T03:18:25.403Z,98989.44
2023-08-01T03:19:22.292Z,98985.88
2023-08-01T03:20:19.195Z,98988.56
2023-08-01T03:21:16.158Z,98988.37
2023-08-01T03:22:13.169Z,98987.00
2023-08-01T03:23:10.146Z,98983.72
2023-08-01T03:24:10.022Z,98985.66
2023-08-01T03:25:08.762Z,98975.75
2023-08-01T03:26:05.754Z,98982.03
2023-08-01T03:27:03.080Z,98978.81
2023-08-01T03:28:00.113Z,98970.84
2023-08-01T03:28:57.462Z,98979.37
2023-08-01T03:29:54.409Z,98970.63
2023-08-01T03:30:51.833Z,98964.37
2023-08-01T03:31:48.905Z,98962.22
2023-08-01T03:32:46.096Z,98966.84
2023-08-01T03:33:43.173Z,98967.13
2023-08-01T03:34:42.583Z,98959.19
2023-08-01T03:35:39.775Z,98957.50
2023-08-01T03:36:37.014Z,98962.72
2023-08-01T03:37:34.395Z,98959.72
2023-08-01T03:38:31.361Z,98960.28
2023-08-01T03:39:28.331Z,98952.38
2023-08-01T03:40:25.415Z,98966.56
2023-08-01T03:41:22.408Z,98960.03
2023-08-01T03:42:19.919Z,98964.97
2023-08-01T03:43:16.828Z,98955.13
2023-08-01T03:44:14.040Z,98960.59
2023-08-01T03:45:11.546Z,98954.59
2023-08-01T03:46:09.033Z,98963.66
2023-08-01T03:47:07.986Z,98956.81
2023-08-01T03:48:05.240Z,98956.56
2023-08-01T03:49:02.316Z,98961.50
2023-08-01T03:49:59.232Z,98963.72
2023-08-01T03:50:56.367Z,98964.06
2023-08-01T03:51:53.334Z,98968.72
2023-08-01T03:52:50.409Z,98971.47
2023-08-01T03:53:56.152Z,98966.00
2023-08-01T03:54:57.207Z,98964.91
2023-08-01T03:55:54.104Z,98969.28
2023-08-01T03:56:51.205Z,98963.81
2023-08-01T03:57:48.243Z,98967.41
2023-08-01T03:58:45.216Z,98957.25
2023-08-01T03:59:42.308Z,98956.72
2023-08-01T04:00:39.448Z,98961.12
2023-08-01T04:01:36.362Z,98956.19
2023-08-01T04:02:33.337Z,98955.91
2023-08-01T04:03:30.411Z,98954.81
2023-08-01T04:04:27.946Z,98957.56
2023-08-01T04:05:25.505Z,98955.38
2023-08-01T04:06:22.420Z,98956.22
2023-08-01T04:07:20.044Z,98953.75
2023-08-01T04:08:17.087Z,98957.06
2023-08-01T04:09:13.989Z,98957.87
2023-08-01T04:10:11.372Z,98959.53
2023-08-01T04:11:08.367Z,98964.47
2023-08-01T04:12:07.876Z,98957.87
2023-08-01T04:13:05.251Z,98955.97
2023-08-01T04:14:02.473Z,98963.66
2023-08-01T04:15:00.036Z,98951.88
2023-08-01T04:15:57.056Z,98968.06
2023-08-01T04:16:54.076Z,98961.75
2023-08-01T04:17:51.045Z,98962.59
2023-08-01T04:18:47.983Z,98959.03
2023-08-01T04:19:44.911Z,98957.34
2023-08-01T04:20:41.810Z,98953.78
2023-08-01T04:21:38.863Z,98957.66
2023-08-01T04:22:35.855Z,98954.38
2023-08-01T04:23:32.697Z,98955.53
2023-08-01T04:24:32.306Z,98948.13
2023-08-01T04:25:29.506Z,98956.63
2023-08-01T04:26:26.361Z,98952.50
2023-08-01T04:27:23.306Z,98954.13
2023-08-01T04:28:20.285Z,98951.88
2023-08-01T04:29:19.208Z,98946.94
2023-08-01T04:30:16.130Z,98948.53
2023-08-01T04:31:13.128Z,98941.37
2023-08-01T04:32:10.164Z,98945.75
2023-08-01T04:33:07.094Z,98949.31
2023-08-01T04:34:04.113Z,98945.06
2023-08-01T04:35:01.080Z,98947.13
2023-08-01T04:35:58.058Z,98940.97
2023-08-01T04:36:54.996Z,98936.38
2023-08-01T04:37:52.025Z,98935.75
2023-08-01T04:39:45.981Z,98933.75
2023-08-01T04:40:42.995Z,98933.34
2023-08-01T04:41:39.886Z,98940.81
2023-08-01T04:42:36.982Z,98934.78
2023-08-01T04:43:33.922Z,98937.34
2023-08-01T04:44:31.581Z,98939.47
2023-08-01T04:45:28.628Z,98949.19
2023-08-01T04:46:25.576Z,98945.78
2023-08-01T04:47:22.846Z,98953.41
2023-08-01T04:48:19.878Z,98955.06
2023-08-01T04:49:16.896Z,98943.53
2023-08-01T04:50:13.775Z,98947.72
2023-08-01T04:51:10.627Z,98946.38
2023-08-01T04:52:09.349Z,98945.88
2023-08-01T04:53:07.551Z,98945.25
2023-08-01T04:54:05.148Z,98942.44
2023-08-01T04:55:02.083Z,98949.47
2023-08-01T04:55:59.265Z,98953.31
2023-08-01T04:56:56.197Z,98953.38
2023-08-01T04:57:53.153Z,98947.28
2023-08-01T04:58:50.180Z,98946.00
2023-08-01T04:59:47.235Z,98948.66
2023-08-01T05:00:44.200Z,98956.50
2023-08-01T05:01:41.575Z,98955.28
2023-08-01T05:02:38.950Z,98952.28
2023-08-01T05:03:35.926Z,98956.19
2023-08-01T05:04:32.923Z,98959.88
2023-08-01T05:05:29.901Z,98958.97
2023-08-01T05:06:26.847Z,98953.41
2023-08-01T05:07:23.851Z,98960.50
2023-08-01T05:08:20.726Z,98950.84
2023-08-01T05:09:17.674Z,98957.09
2023-08-01T05:10:15.871Z,98952.41
2023-08-01T05:11:14.525Z,98957.75
2023-08-01T05:12:11.493Z,98956.34
2023-08-01T05:13:08.485Z,98949.22
2023-08-01T05:14:05.534Z,98948.41
2023-08-01T05:15:02.611Z,98944.22
2023-08-01T05:15:59.568Z,98947.38
2023-08-01T05:16:56.601Z,98950.66
2023-08-01T05:17:54.307Z,98952.31
2023-08-01T05:18:51.274Z,98948.81
2023-08-01T05:19:48.174Z,98952.16
2023-08-01T05:20:45.256Z,98949.72
2023-08-01T05:21:42.338Z,98943.66
2023-08-01T05:22:39.276Z,98953.28
2023-08-01T05:23:36.266Z,98954.13
2023-08-01T05:24:33.408Z,98949.75
2023-08-01T05:25:30.219Z,98949.75
2023-08-01T05:26:27.547Z,98944.91
2023-08-01T05:27:24.750Z,98957.97
2023-08-01T05:28:21.653Z,98949.91
2023-08-01T05:29:18.724Z,98948.81
2023-08-01T05:30:15.905Z,98945.31
2023-08-01T05:31:12.928Z,98949.53
2023-08-01T05:32:09.931Z,98953.28
2023-08-01T05:33:06.995Z,98954.84
2023-08-01T05:34:04.061Z,98959.28
2023-08-01T05:35:01.054Z,98953.91
2023-08-01T05:35:58.086Z,98949.25
2023-08-01T05:36:55.104Z,98944.53
2023-08-01T05:37:52.265Z,98941.06
2023-08-01T05:38:49.308Z,98946.25
2023-08-01T05:39:46.345Z,98950.22
2023-08-01T05:40:43.386Z,98950.31
2023-08-01T05:41:40.447Z,98950.00
2023-08-01T05:42:37.484Z,98958.13
2023-08-01T05:43:34.597Z,98953.31
2023-08-01T05:44:31.574Z,98949.72
2023-08-01T05:45:28.632Z,98944.72
2023-08-01T05:46:25.669Z,98950.97
2023-08-01T05:47:24.250Z,98952.09
2023-08-01T05:48:35.371Z,98953.31
2023-08-01T05:49:33.072Z,98956.50
2023-08-01T05:50:30.312Z,98961.72
2023-08-01T05:51:27.388Z,98956.28
2023-08-01T05:52:25.426Z,98954.44
2023-08-01T05:53:23.127Z,98950.34
2023-08-01T05:54:20.133Z,98943.28
2023-08-01T05:55:17.233Z,98951.97
2023-08-01T05:56:14.203Z,98948.28
2023-08-01T05:57:11.860Z,98954.22
2023-08-01T05:58:09.592Z,98951.97
2023-08-01T05:59:06.826Z,98956.16
2023-08-01T06:00:04.430Z,98961.66
2023-08-01T06:01:01.561Z,98945.34
2023-08-01T06:01:58.839Z,98948.87
2023-08-01T06:02:55.992Z,98944.34
2023-08-01T06:03:53.200Z,98951.13
2023-08-01T06:04:51.275Z,98948.91
2023-08-01T06:05:48.738Z,98942.50
2023-08-01T06:06:46.022Z,98950.47
2023-08-01T06:07:43.070Z,98959.47
2023-08-01T06:08:40.085Z,98944.25
2023-08-01T06:09:37.107Z,98948.56
2023-08-01T06:10:35.689Z,98945.44
2023-08-01T06:11:34.690Z,98939.56
2023-08-01T06:12:31.829Z,98936.22
2023-08-01T06:13:28.834Z,98931.66
2023-08-01T06:14:25.867Z,98939.50
2023-08-01T06:15:23.458Z,98945.22
2023-08-01T06:16:25.507Z,98941.28
2023-08-01T06:17:24.094Z,98933.25
2023-08-01T06:18:21.176Z,98936.44
2023-08-01T06:19:19.727Z,98931.53
2023-08-01T06:20:16.780Z,98930.59
2023-08-01T06:21:13.710Z,98925.69
2023-08-01T06:22:10.565Z,98923.09
2023-08-01T06:23:07.653Z,98928.09
2023-08-01T06:24:04.888Z,98920.59
2023-08-01T06:25:02.145Z,98931.41
2023-08-01T06:25:59.363Z,98932.94
2023-08-01T06:26:56.515Z,98926.94
2023-08-01T06:27:53.760Z,98921.41
2023-08-01T06:28:50.668Z,98926.47
2023-08-01T06:29:47.668Z,98925.94
2023-08-01T06:30:44.564Z,98918.81
2023-08-01T06:31:41.417Z,98914.88
2023-08-01T06:32:38.370Z,98914.53
2023-08-01T06:33:35.439Z,98911.78
2023-08-01T06:34:32.508Z,98913.56
2023-08-01T06:35:29.624Z,98911.78
2023-08-01T06:36:26.787Z,98913.56
2023-08-01T06:37:23.820Z,98903.44
2023-08-01T06:38:20.925Z,98905.72
2023-08-01T06:39:18.010Z,98911.19
2023-08-01T06:40:15.001Z,98904.75
2023-08-01T06:41:12.024Z,98906.53
2023-08-01T06:42:09.058Z,98906.22
2023-08-01T06:43:06.040Z,98903.19
2023-08-01T06:44:03.195Z,98903.75
2023-08-01T06:45:00.197Z,98896.06
2023-08-01T06:45:57.265Z,98899.16
2023-08-01T06:46:54.329Z,98897.34
2023-08-01T06:47:51.399Z,98899.44
2023-08-01T06:48:48.893Z,98901.47
2023-08-01T06:49:45.909Z,98897.22
2023-08-01T06:50:42.814Z,98891.53
2023-08-01T06:51:39.842Z,98890.72
2023-08-01T06:52:36.805Z,98882.22
2023-08-01T06:53:33.741Z,98882.72
2023-08-01T06:54:30.685Z,98885.59
2023-08-01T06:55:27.816Z,98886.47
2023-08-01T06:56:25.165Z,98883.38
2023-08-01T06:57:22.212Z,98890.84
2023-08-01T06:58:19.264Z,98890.19
2023-08-01T06:59:16.369Z,98887.87
2023-08-01T07:00:13.736Z,98888.72
2023-08-01T07:01:11.242Z,98890.03
2023-08-01T07:02:09.942Z,98893.00
2023-08-01T07:03:07.244Z,98888.50
2023-08-01T07:04:04.400Z,98894.06
2023-08-01T07:05:01.427Z,98894.81
2023-08-01T07:05:59.208Z,98899.81
2023-08-01T07:06:56.246Z,98896.34
2023-08-01T07:07:53.324Z,98902.53
2023-08-01T07:08:50.332Z,98902.72
2023-08-01T07:09:47.307Z,98895.41
2023-08-01T07:10:44.234Z,98889.19
2023-08-01T07:11:41.114Z,98891.81
2023-08-01T07:12:38.135Z,98888.63
2023-08-01T07:13:35.158Z,98898.78
2023-08-01T07:14:32.157Z,98891.47
2023-08-01T07:15:29.097Z,98896.66
2023-08-01T07:16:26.329Z,98889.84
2023-08-01T07:17:23.336Z,98889.34
2023-08-01T07:18:20.439Z,98890.19
2023-08-01T07:19:17.716Z,98879.63
2023-08-01T07:20:14.856Z,98883.84
2023-08-01T07:21:12.201Z,98887.91
2023-08-01T07:22:09.192Z,98877.97
2023-08-01T07:23:06.196Z,98888.41
2023-08-01T07:24:03.745Z,98880.37
2023-08-01T07:25:00.686Z,98887.59
2023-08-01T07:25:57.630Z,98883.53
2023-08-01T07:26:54.698Z,98883.06
2023-08-01T07:27:51.871Z,98888.31
2023-08-01T07:28:49.048Z,98883.22
2023-08-01T07:29:46.068Z,98879.47
2023-08-01T07:30:43.009Z,98873.28
2023-08-01T07:31:40.052Z,98882.75
2023-08-01T07:32:38.793Z,98874.09
2023-08-01T07:33:36.559Z,98876.69
2023-08-01T07:34:33.636Z,98870.47
2023-08-01T07:35:30.560Z,98876.03
2023-08-01T07:36:28.070Z,98878.13
2023-08-01T07:37:25.799Z,98877.59
2023-08-01T07:38:23.008Z,98879.78
2023-08-01T07:39:19.957Z,98873.59
2023-08-01T07:40:17.075Z,98877.50
2023-08-01T07:41:14.534Z,98879.28
2023-08-01T07:42:11.599Z,98869.44
2023-08-01T07:43:08.686Z,98878.47
2023-08-01T07:44:05.829Z,98880.28
2023-08-01T07:45:02.799Z,98870.66
2023-08-01T07:46:00.529Z,98877.34
2023-08-01T07:46:58.403Z,98879.47
2023-08-01T07:47:55.482Z,98871.28
2023-08-01T07:48:54.935Z,98877.34
2023-08-01T07:49:52.808Z,98880.31
2023-08-01T07:50:49.857Z,98876.03
2023-08-01T07:51:46.955Z,98878.94
2023-08-01T07:52:44.062Z,98870.75
2023-08-01T07:53:41.873Z,98870.50
2023-08-01T07:54:39.026Z,98873.97
2023-08-01T07:55:36.403Z,98880.66
2023-08-01T07:56:33.443Z,98865.78
2023-08-01T07:57:30.393Z,98871.78
2023-08-01T07:58:27.447Z,98866.50
2023-08-01T07:59:24.500Z,98874.31
2023-08-01T08:00:21.876Z,98868.06
2023-08-01T08:01:19.232Z,98874.13
2023-08-01T08:02:19.706Z,98875.03
2023-08-01T08:03:17.439Z,98874.66
2023-08-01T08:04:15.555Z,98870.25
2023-08-01T08:05:13.602Z,98874.16
2023-08-01T08:06:10.678Z,98876.94
2023-08-01T08:07:07.934Z,98863.91
2023-08-01T08:08:05.341Z,98877.62
2023-08-01T08:09:02.396Z,98875.44
2023-08-01T08:09:59.489Z,98877.50
2023-08-01T08:10:56.874Z,98875.66
2023-08-01T08:11:53.933Z,98877.12
2023-08-01T08:12:51.097Z,98874.06
2023-08-01T08:13:48.318Z,98880.28
2023-08-01T08:14:45.546Z,98880.37
2023-08-01T08:15:42.649Z,98881.50
2023-08-01T08:16:40.246Z,98875.22
2023-08-01T08:17:37.651Z,98876.66
2023-08-01T08:18:35.178Z,98881.19
2023-08-01T08:19:32.324Z,98873.63
2023-08-01T08:20:29.798Z,98880.16
2023-08-01T08:21:26.785Z,98868.19
2023-08-01T08:22:23.772Z,98872.41
2023-08-01T08:23:20.884Z,98876.62
2023-08-01T08:24:17.954Z,98881.63
2023-08-01T08:25:15.004Z,98877.59
2023-08-01T08:26:12.058Z,98871.03
2023-08-01T08:27:09.148Z,98883.16
2023-08-01T08:28:06.295Z,98876.56
2023-08-01T08:29:03.853Z,98889.03
2023-08-01T08:30:01.068Z,98879.72
2023-08-01T08:30:58.601Z,98879.16
2023-08-01T08:31:55.723Z,98870.34
2023-08-01T08:32:52.701Z,98877.59
2023-08-01T08:33:49.782Z,98870.66
2023-08-01T08:34:46.833Z,98866.56
2023-08-01T08:35:44.251Z,98874.53
2023-08-01T08:36:41.612Z,98875.97
2023-08-01T08:37:38.826Z,98869.03
2023-08-01T08:38:36.022Z,98869.84
2023-08-01T08:39:33.243Z,98863.66
2023-08-01T08:40:33.274Z,98875.19
2023-08-01T08:41:31.815Z,98865.34
2023-08-01T08:42:28.733Z,98866.41
2023-08-01T08:43:27.683Z,98867.28
2023-08-01T08:44:31.839Z,98861.31
2023-08-01T08:45:30.715Z,98855.91
2023-08-01T08:46:30.773Z,98854.81
2023-08-01T08:47:29.850Z,98852.81
2023-08-01T08:48:27.446Z,98857.31
2023-08-01T08:49:26.058Z,98858.66
2023-08-01T08:50:23.026Z,98859.63
2023-08-01T08:51:20.297Z,98856.72
2023-08-01T08:52:17.675Z,98858.06
2023-08-01T08:53:15.605Z,98859.69
2023-08-01T08:54:13.280Z,98863.88
2023-08-01T08:55:10.476Z,98855.31
2023-08-01T08:56:09.892Z,98856.72
2023-08-01T08:57:08.161Z,98859.75
2023-08-01T08:58:05.849Z,98862.31
2023-08-01T08:59:03.244Z,98862.38
2023-08-01T09:00:01.629Z,98858.56
2023-08-01T09:01:00.999Z,98860.94
2023-08-01T09:01:58.155Z,98867.94
2023-08-01T09:02:55.233Z,98864.34
2023-08-01T09:03:52.348Z,98863.69
2023-08-01T09:04:49.435Z,98863.84
2023-08-01T09:05:50.773Z,98862.31
2023-08-01T09:06:52.203Z,98863.31
2023-08-01T09:07:51.787Z,98860.88
2023-08-01T09:08:54.769Z,98867.28
2023-08-01T09:09:51.777Z,98864.97
2023-08-01T09:10:49.414Z,98865.91
2023-08-01T09:11:53.915Z,98864.53
2023-08-01T09:12:51.680Z,98861.94
2023-08-01T09:13:49.326Z,98860.06
2023-08-01T09:14:46.980Z,98854.62
2023-08-01T09:15:45.125Z,98857.19
2023-08-01T09:16:43.144Z,98865.53
2023-08-01T09:17:52.742Z,98853.62
2023-08-01T09:18:53.357Z,98861.34
2023-08-01T09:19:50.417Z,98862.31
2023-08-01T09:20:49.089Z,98861.88
2023-08-01T09:21:46.612Z,98859.78
2023-08-01T09:22:47.688Z,98855.44
2023-08-01T09:23:44.701Z,98861.09
2023-08-01T09:24:52.752Z,98865.50
2023-08-01T09:25:49.814Z,98854.41
2023-08-01T09:26:47.887Z,98855.06
2023-08-01T09:27:44.963Z,98860.03
2023-08-01T09:28:42.169Z,98859.47
2023-08-01T09:29:39.420Z,98861.78
2023-08-01T09:30:48.784Z,98852.56
2023-08-01T09:31:45.955Z,98854.06
2023-08-01T09:32:56.297Z,98858.34
2023-08-01T09:33:53.286Z,98854.00
2023-08-01T09:34:59.879Z,98852.22
2023-08-01T09:35:56.923Z,98854.25
2023-08-01T09:37:02.737Z,98849.72
2023-08-01T09:38:01.583Z,98850.28
2023-08-01T09:39:04.189Z,98853.28
2023-08-01T09:40:01.184Z,98862.38
2023-08-01T09:40:58.296Z,98860.75
2023-08-01T09:41:59.871Z,98858.34
2023-08-01T09:43:02.953Z,98856.84
2023-08-01T09:44:01.131Z,98855.94
2023-08-01T09:44:58.367Z,98848.16
2023-08-01T09:45:55.776Z,98856.06
2023-08-01T09:47:08.513Z,98851.44
2023-08-01T09:48:06.965Z,98849.66
2023-08-01T09:49:14.006Z,98845.06
2023-08-01T09:50:12.541Z,98851.06
2023-08-01T09:51:13.147Z,98843.34
2023-08-01T09:52:10.306Z,98845.09
2023-08-01T09:53:10.603Z,98841.06
2023-08-01T09:54:07.603Z,98836.72
2023-08-01T09:55:04.964Z,98844.97
2023-08-01T09:56:05.247Z,98840.91
2023-08-01T09:57:06.264Z,98836.38
2023-08-01T09:58:04.343Z,98840.44
2023-08-01T09:59:01.330Z,98839.97
2023-08-01T09:59:59.695Z,98843.44
2023-08-01T10:00:57.182Z,98836.91
2023-08-01T10:01:55.507Z,98841.50
2023-08-01T10:02:54.637Z,98840.91
2023-08-01T10:03:53.831Z,98844.03
2023-08-01T10:04:51.465Z,98839.50
2023-08-01T10:05:48.566Z,98843.66
2023-08-01T10:06:48.399Z,98834.03
2023-08-01T10:07:45.980Z,98841.84
2023-08-01T10:08:43.612Z,98837.53
2023-08-01T10:09:41.617Z,98840.78
2023-08-01T10:10:39.016Z,98843.44
2023-08-01T10:11:36.586Z,98844.13
2023-08-01T10:12:34.254Z,98844.41
2023-08-01T10:13:31.641Z,98839.06
2023-08-01T10:14:28.777Z,98839.66
2023-08-01T10:15:28.808Z,98838.69
2023-08-01T10:16:26.001Z,98828.69
2023-08-01T10:17:23.857Z,98827.75
2023-08-01T10:18:21.353Z,98826.25
2023-08-01T10:19:19.168Z,98828.81
2023-08-01T10:20:17.041Z,98830.22
2023-08-01T10:21:16.103Z,98828.59
2023-08-01T10:22:13.454Z,98829.97
2023-08-01T10:23:10.917Z,98825.69
2023-08-01T10:24:08.131Z,98822.78
2023-08-01T10:25:06.085Z,98829.97
2023-08-01T10:26:06.895Z,98830.56
2023-08-01T10:27:16.862Z,98826.84
2023-08-01T10:28:14.043Z,98821.38
2023-08-01T10:29:11.456Z,98813.09
2023-08-01T10:30:09.405Z,98811.47
2023-08-01T10:31:15.030Z,98814.25
2023-08-01T10:32:12.469Z,98817.56
2023-08-01T10:33:14.138Z,98815.53
2023-08-01T10:34:15.986Z,98809.59
2023-08-01T10:35:15.304Z,98809.25
2023-08-01T10:36:20.013Z,98810.06
2023-08-01T10:37:17.074Z,98803.38
2023-08-01T10:38:14.245Z,98809.06
2023-08-01T10:39:23.046Z,98814.63
2023-08-01T10:40:20.034Z,98811.28
2023-08-01T10:41:35.148Z,98801.72
2023-08-01T10:42:45.766Z,98809.50
2023-08-01T10:43:44.948Z,98806.16
2023-08-01T10:44:48.215Z,98804.03
2023-08-01T10:45:45.277Z,98805.56
2023-08-01T10:46:49.208Z,98803.59
2023-08-01T10:47:46.378Z,98806.75
2023-08-01T10:48:51.270Z,98797.78
2023-08-01T10:49:48.317Z,98801.41
2023-08-01T10:50:56.136Z,98800.09
2023-08-01T10:51:53.283Z,98796.84
2023-08-01T10:52:50.315Z,98801.81
2023-08-01T10:53:47.516Z,98791.81
2023-08-01T10:54:44.593Z,98795.88
2023-08-01T10:55:46.592Z,98793.12
2023-08-01T10:56:47.517Z,98796.19
2023-08-01T10:57:51.250Z,98795.81
2023-08-01T10:58:48.898Z,98797.91
2023-08-01T10:59:46.477Z,98796.06
2023-08-01T11:00:44.345Z,98800.91
2023-08-01T11:01:52.874Z,98802.91
2023-08-01T11:02:53.157Z,98798.44
2023-08-01T11:03:50.501Z,98803.91
2023-08-01T11:04:56.921Z,98809.75
2023-08-01T11:05:59.957Z,98813.81
2023-08-01T11:06:57.796Z,98808.72
2023-08-01T11:07:57.271Z,98804.03
2023-08-01T11:08:54.400Z,98805.47
2023-08-01T11:09:51.592Z,98799.19
2023-08-01T11:10:51.473Z,98791.81
2023-08-01T11:11:53.806Z,98792.88
2023-08-01T11:12:50.988Z,98793.22
2023-08-01T11:13:53.288Z,98795.22
2023-08-01T11:14:50.425Z,98789.50
2023-08-01T11:15:47.449Z,98779.72
2023-08-01T11:16:46.101Z,98790.09
2023-08-01T11:17:48.258Z,98784.03
2023-08-01T11:18:46.320Z,98776.31
2023-08-01T11:19:43.461Z,98777.78
2023-08-01T11:20:41.753Z,98781.25